createdAt,value
2023-04-16T00:00:03.807Z,3.10
2023-04-16T00:00:14.856Z,2.50
2023-04-16T00:00:25.831Z,2.40
2023-04-16T00:00:36.595Z,2.60
2023-04-16T00:00:47.650Z,2.40
2023-04-16T00:00:58.619Z,2.40
2023-04-16T00:01:09.373Z,2.20
2023-04-16T00:01:20.442Z,2.70
2023-04-16T00:01:31.395Z,2.40
2023-04-16T00:01:42.176Z,2.80
2023-04-16T00:01:53.308Z,2.10
2023-04-16T00:02:04.319Z,2.10
2023-04-16T00:02:15.128Z,2.60
2023-04-16T00:02:25.741Z,2.80
2023-04-16T00:02:36.382Z,2.90
2023-04-16T00:02:47.315Z,2.10
2023-04-16T00:02:57.975Z,2.40
2023-04-16T00:03:08.692Z,2.50
2023-04-16T00:03:19.781Z,2.60
2023-04-16T00:03:30.560Z,2.00
2023-04-16T00:03:41.286Z,2.10
2023-04-16T00:03:52.602Z,2.50
2023-04-16T00:04:03.868Z,2.40
2023-04-16T00:04:14.069Z,2.00
2023-04-16T00:04:25.032Z,1.90
2023-04-16T00:04:35.728Z,2.00
2023-04-16T00:04:46.779Z,2.20
2023-04-16T00:04:57.555Z,2.20
2023-04-16T00:05:08.105Z,2.20
2023-04-16T00:05:19.023Z,1.70
2023-04-16T00:05:29.785Z,2.00
2023-04-16T00:05:40.833Z,2.60
2023-04-16T00:05:51.805Z,2.50
2023-04-16T00:06:02.567Z,2.00
2023-04-16T00:06:13.619Z,2.00
2023-04-16T00:06:24.574Z,2.40
2023-04-16T00:06:35.347Z,2.10
2023-04-16T00:06:46.381Z,1.90
2023-04-16T00:06:57.364Z,1.60
2023-04-16T00:07:08.114Z,1.90
2023-04-16T00:07:19.164Z,2.00
2023-04-16T00:07:30.144Z,2.40
2023-04-16T00:07:40.889Z,2.00
2023-04-16T00:07:51.947Z,2.20
2023-04-16T00:08:02.918Z,1.70
2023-04-16T00:08:13.669Z,1.70
2023-04-16T00:08:24.726Z,1.70
2023-04-16T00:08:35.704Z,1.60
2023-04-16T00:08:46.449Z,1.60
2023-04-16T00:08:57.483Z,1.70
2023-04-16T00:09:08.728Z,2.10
2023-04-16T00:09:19.069Z,2.50
2023-04-16T00:09:30.114Z,2.30
2023-04-16T00:09:41.098Z,2.20
2023-04-16T00:09:51.851Z,1.90
2023-04-16T00:10:02.912Z,1.90
2023-04-16T00:10:13.874Z,2.10
2023-04-16T00:10:24.640Z,2.90
2023-04-16T00:10:35.684Z,3.40
2023-04-16T00:10:46.657Z,2.50
2023-04-16T00:10:57.419Z,2.20
2023-04-16T00:11:08.466Z,1.60
2023-04-16T00:11:19.437Z,1.50
2023-04-16T00:11:30.198Z,1.60
2023-04-16T00:11:41.247Z,1.60
2023-04-16T00:11:52.218Z,1.70
2023-04-16T00:12:02.986Z,1.90
2023-04-16T00:12:14.027Z,1.90
2023-04-16T00:12:24.992Z,2.00
2023-04-16T00:12:35.778Z,2.00
2023-04-16T00:12:46.808Z,1.90
2023-04-16T00:12:57.767Z,1.80
2023-04-16T00:13:08.537Z,1.80
2023-04-16T00:13:19.573Z,1.80
2023-04-16T00:13:30.542Z,2.30
2023-04-16T00:13:41.324Z,2.20
2023-04-16T00:13:52.357Z,2.20
2023-04-16T00:14:03.313Z,2.20
2023-04-16T00:14:14.089Z,2.20
2023-04-16T00:14:25.120Z,2.20
2023-04-16T00:14:36.087Z,2.70
2023-04-16T00:14:46.857Z,2.90
2023-04-16T00:14:57.903Z,2.80
2023-04-16T00:15:08.881Z,1.80
2023-04-16T00:15:19.630Z,2.30
2023-04-16T00:15:30.685Z,1.90
2023-04-16T00:15:41.668Z,2.10
2023-04-16T00:15:52.422Z,2.00
2023-04-16T00:16:03.473Z,2.10
2023-04-16T00:16:14.442Z,2.20
2023-04-16T00:16:25.238Z,2.20
2023-04-16T00:16:36.273Z,2.10
2023-04-16T00:16:47.298Z,2.10
2023-04-16T00:16:58.109Z,1.90
2023-04-16T00:17:09.220Z,1.90
2023-04-16T00:17:19.738Z,2.00
2023-04-16T00:17:30.543Z,2.60
2023-04-16T00:17:41.545Z,2.80
2023-04-16T00:17:52.575Z,1.90
2023-04-16T00:18:03.472Z,1.80
2023-04-16T00:18:13.966Z,1.90
2023-04-16T00:18:25.061Z,2.10
2023-04-16T00:18:35.882Z,2.30
2023-04-16T00:18:46.927Z,2.30
2023-04-16T00:18:57.922Z,2.60
2023-04-16T00:19:08.962Z,3.10
2023-04-16T00:19:19.432Z,3.20
2023-04-16T00:19:30.392Z,2.90
2023-04-16T00:19:41.155Z,2.10
2023-04-16T00:19:52.195Z,2.40
2023-04-16T00:20:03.160Z,2.60
2023-04-16T00:20:13.940Z,2.50
2023-04-16T00:20:24.971Z,3.00
2023-04-16T00:20:35.943Z,2.50
2023-04-16T00:20:46.706Z,2.30
2023-04-16T00:20:57.754Z,2.10
2023-04-16T00:21:08.729Z,2.30
2023-04-16T00:21:19.504Z,2.20
2023-04-16T00:21:30.534Z,2.00
2023-04-16T00:21:41.503Z,1.90
2023-04-16T00:21:52.262Z,1.90
2023-04-16T00:22:03.310Z,1.90
2023-04-16T00:22:14.279Z,2.00
2023-04-16T00:22:25.038Z,2.00
2023-04-16T00:22:36.090Z,2.30
2023-04-16T00:22:47.047Z,2.30
2023-04-16T00:22:57.812Z,2.70
2023-04-16T00:23:08.886Z,2.30
2023-04-16T00:23:19.825Z,2.30
2023-04-16T00:23:30.594Z,2.40
2023-04-16T00:23:41.635Z,2.70
2023-04-16T00:23:52.604Z,2.40
2023-04-16T00:24:03.364Z,2.70
2023-04-16T00:24:14.421Z,3.70
2023-04-16T00:24:25.372Z,4.10
2023-04-16T00:24:36.137Z,3.90
2023-04-16T00:24:47.179Z,3.00
2023-04-16T00:24:58.149Z,2.30
2023-04-16T00:25:08.913Z,2.40
2023-04-16T00:25:19.958Z,2.40
2023-04-16T00:25:30.921Z,2.40
2023-04-16T00:25:41.697Z,2.60
2023-04-16T00:25:52.743Z,2.50
2023-04-16T00:26:03.712Z,3.00
2023-04-16T00:26:14.477Z,3.00
2023-04-16T00:26:25.522Z,2.90
2023-04-16T00:26:36.479Z,3.90
2023-04-16T00:26:47.247Z,3.80
2023-04-16T00:26:58.287Z,4.00
2023-04-16T00:27:09.251Z,2.60
2023-04-16T00:27:20.017Z,2.70
2023-04-16T00:27:31.085Z,2.70
2023-04-16T00:27:42.071Z,2.80
2023-04-16T00:27:52.807Z,3.10
2023-04-16T00:28:03.857Z,2.80
2023-04-16T00:28:14.814Z,3.10
2023-04-16T00:28:25.579Z,3.20
2023-04-16T00:28:36.629Z,3.30
2023-04-16T00:28:47.600Z,3.20
2023-04-16T00:28:58.375Z,3.30
2023-04-16T00:29:09.681Z,3.10
2023-04-16T00:29:20.193Z,2.90
2023-04-16T00:29:30.955Z,2.90
2023-04-16T00:29:42.001Z,3.30
2023-04-16T00:29:52.968Z,3.20
2023-04-16T00:30:03.728Z,3.10
2023-04-16T00:30:14.777Z,3.20
2023-04-16T00:30:25.741Z,3.40
2023-04-16T00:30:36.530Z,3.50
2023-04-16T00:30:47.586Z,3.40
2023-04-16T00:30:58.584Z,3.30
2023-04-16T00:31:09.410Z,3.20
2023-04-16T00:31:19.980Z,3.20
2023-04-16T00:31:31.047Z,3.20
2023-04-16T00:31:41.798Z,3.30
2023-04-16T00:31:52.845Z,3.40
2023-04-16T00:32:03.806Z,3.60
2023-04-16T00:32:14.575Z,3.30
2023-04-16T00:32:25.662Z,3.70
2023-04-16T00:32:36.677Z,3.30
2023-04-16T00:32:47.435Z,3.20
2023-04-16T00:32:58.489Z,3.20
2023-04-16T00:33:09.439Z,3.40
2023-04-16T00:33:20.195Z,3.40
2023-04-16T00:33:31.234Z,3.60
2023-04-16T00:33:42.205Z,3.60
2023-04-16T00:33:52.973Z,3.40
2023-04-16T00:34:04.012Z,3.40
2023-04-16T00:34:14.980Z,3.30
2023-04-16T00:34:25.741Z,3.80
2023-04-16T00:34:36.789Z,3.50
2023-04-16T00:34:47.765Z,3.80
2023-04-16T00:34:58.512Z,3.50
2023-04-16T00:35:09.560Z,4.20
2023-04-16T00:35:20.525Z,4.20
2023-04-16T00:35:31.291Z,4.20
2023-04-16T00:35:42.347Z,3.80
2023-04-16T00:35:53.311Z,3.50
2023-04-16T00:36:04.077Z,3.50
2023-04-16T00:36:15.132Z,4.00
2023-04-16T00:36:26.097Z,4.30
2023-04-16T00:36:36.869Z,4.10
2023-04-16T00:36:47.904Z,3.80
2023-04-16T00:36:58.869Z,3.50
2023-04-16T00:37:09.652Z,3.60
2023-04-16T00:37:20.697Z,3.80
2023-04-16T00:37:31.677Z,4.40
2023-04-16T00:37:42.423Z,4.00
2023-04-16T00:37:53.475Z,3.70
2023-04-16T00:38:04.442Z,3.50
2023-04-16T00:38:15.199Z,3.60
2023-04-16T00:38:26.243Z,3.70
2023-04-16T00:38:37.209Z,3.70
2023-04-16T00:38:47.984Z,3.70
2023-04-16T00:38:59.022Z,4.10
2023-04-16T00:39:10.128Z,4.60
2023-04-16T00:39:20.980Z,4.20
2023-04-16T00:39:32.030Z,4.40
2023-04-16T00:39:42.995Z,4.40
2023-04-16T00:39:53.757Z,4.40
2023-04-16T00:40:04.801Z,4.60
2023-04-16T00:40:15.768Z,4.60
2023-04-16T00:40:26.534Z,4.30
2023-04-16T00:40:37.586Z,4.10
2023-04-16T00:40:48.576Z,4.10
2023-04-16T00:40:59.346Z,4.50
2023-04-16T00:41:10.393Z,4.90
2023-04-16T00:41:21.379Z,5.20
2023-04-16T00:41:32.150Z,4.70
2023-04-16T00:41:43.188Z,5.50
2023-04-16T00:41:54.153Z,5.10
2023-04-16T00:42:04.920Z,5.70
2023-04-16T00:42:15.968Z,4.40
2023-04-16T00:42:26.928Z,4.10
2023-04-16T00:42:37.690Z,4.10
2023-04-16T00:42:48.814Z,4.00
2023-04-16T00:42:59.759Z,3.80
2023-04-16T00:43:10.540Z,3.70
2023-04-16T00:43:21.574Z,4.20
2023-04-16T00:43:32.534Z,5.00
2023-04-16T00:43:43.302Z,5.40
2023-04-16T00:43:54.346Z,4.90
2023-04-16T00:44:05.336Z,4.30
2023-04-16T00:44:16.075Z,4.30
2023-04-16T00:44:27.117Z,4.50
2023-04-16T00:44:38.086Z,4.20
2023-04-16T00:44:48.849Z,4.40
2023-04-16T00:44:59.895Z,3.90
2023-04-16T00:45:10.858Z,4.20
2023-04-16T00:45:21.623Z,4.70
2023-04-16T00:45:32.667Z,5.10
2023-04-16T00:45:43.633Z,4.80
2023-04-16T00:45:54.421Z,4.80
2023-04-16T00:46:05.522Z,5.70
2023-04-16T00:46:16.583Z,6.10
2023-04-16T00:46:27.371Z,6.40
2023-04-16T00:46:37.971Z,5.30
2023-04-16T00:46:48.475Z,4.60
2023-04-16T00:46:59.219Z,4.60
2023-04-16T00:47:10.257Z,4.50
2023-04-16T00:47:21.295Z,4.40
2023-04-16T00:47:32.036Z,4.60
2023-04-16T00:47:43.062Z,4.50
2023-04-16T00:47:54.114Z,4.80
2023-04-16T00:48:04.859Z,4.70
2023-04-16T00:48:15.882Z,4.80
2023-04-16T00:48:26.847Z,4.70
2023-04-16T00:48:37.615Z,4.50
2023-04-16T00:48:48.656Z,4.40
2023-04-16T00:48:59.626Z,4.20
2023-04-16T00:49:10.578Z,4.50
2023-04-16T00:49:21.196Z,4.50
2023-04-16T00:49:32.160Z,4.70
2023-04-16T00:49:42.921Z,4.50
2023-04-16T00:49:53.969Z,4.60
2023-04-16T00:50:04.927Z,4.60
2023-04-16T00:50:15.705Z,4.80
2023-04-16T00:50:26.740Z,4.40
2023-04-16T00:50:37.706Z,4.50
2023-04-16T00:50:48.470Z,4.40
2023-04-16T00:50:59.527Z,4.40
2023-04-16T00:51:10.490Z,4.60
2023-04-16T00:51:21.256Z,4.90
2023-04-16T00:51:32.321Z,5.10
2023-04-16T00:51:43.276Z,5.00
2023-04-16T00:51:54.041Z,4.70
2023-04-16T00:52:05.090Z,4.70
2023-04-16T00:52:16.055Z,5.00
2023-04-16T00:52:26.818Z,5.10
2023-04-16T00:52:37.863Z,5.00
2023-04-16T00:52:48.863Z,5.10
2023-04-16T00:52:59.591Z,4.90
2023-04-16T00:53:10.636Z,5.00
2023-04-16T00:53:21.603Z,4.50
2023-04-16T00:53:32.373Z,4.70
2023-04-16T00:53:43.409Z,4.50
2023-04-16T00:53:54.374Z,5.00
2023-04-16T00:54:05.139Z,5.00
2023-04-16T00:54:16.186Z,5.30
2023-04-16T00:54:27.148Z,5.70
2023-04-16T00:54:37.911Z,5.50
2023-04-16T00:54:48.971Z,5.60
2023-04-16T00:54:59.922Z,5.60
2023-04-16T00:55:10.687Z,5.00
2023-04-16T00:55:21.734Z,5.00
2023-04-16T00:55:32.700Z,5.20
2023-04-16T00:55:43.490Z,5.10
2023-04-16T00:55:54.516Z,5.10
2023-04-16T00:56:05.494Z,5.00
2023-04-16T00:56:17.492Z,5.10
2023-04-16T00:56:27.192Z,4.90
2023-04-16T00:56:38.171Z,4.80
2023-04-16T00:56:48.938Z,4.70
2023-04-16T00:56:59.988Z,4.80
2023-04-16T00:57:10.949Z,5.10
2023-04-16T00:57:21.720Z,5.30
2023-04-16T00:57:32.766Z,5.20
2023-04-16T00:57:43.742Z,4.90
2023-04-16T00:57:54.603Z,5.00
2023-04-16T00:58:05.062Z,4.90
2023-04-16T00:58:16.040Z,5.70
2023-04-16T00:58:26.792Z,5.90
2023-04-16T00:58:37.842Z,6.00
2023-04-16T00:58:48.798Z,5.00
2023-04-16T00:58:59.574Z,4.80
2023-04-16T00:59:10.934Z,4.80
2023-04-16T00:59:21.474Z,5.00
2023-04-16T00:59:32.240Z,4.70
2023-04-16T00:59:43.289Z,4.90
2023-04-16T00:59:54.272Z,5.10
2023-04-16T01:00:05.061Z,5.50
2023-04-16T01:00:16.065Z,5.10
2023-04-16T01:00:27.041Z,4.80
2023-04-16T01:00:37.811Z,4.90
2023-04-16T01:00:48.832Z,5.40
2023-04-16T01:00:59.828Z,5.70
2023-04-16T01:01:10.620Z,5.60
2023-04-16T01:01:21.693Z,5.40
2023-04-16T01:01:32.682Z,5.30
2023-04-16T01:01:43.535Z,5.20
2023-04-16T01:01:54.162Z,5.20
2023-04-16T01:02:04.686Z,5.00
2023-04-16T01:02:15.592Z,5.00
2023-04-16T01:02:26.258Z,4.70
2023-04-16T01:02:36.903Z,5.00
2023-04-16T01:02:47.856Z,4.90
2023-04-16T01:02:58.530Z,4.80
2023-04-16T01:03:09.647Z,4.80
2023-04-16T01:03:20.541Z,4.90
2023-04-16T01:03:31.295Z,5.20
2023-04-16T01:03:41.987Z,4.80
2023-04-16T01:03:52.972Z,4.80
2023-04-16T01:04:03.614Z,5.10
2023-04-16T01:04:14.704Z,5.00
2023-04-16T01:04:25.563Z,4.50
2023-04-16T01:04:36.343Z,4.70
2023-04-16T01:04:46.887Z,4.90
2023-04-16T01:04:57.656Z,5.00
2023-04-16T01:05:08.715Z,5.10
2023-04-16T01:05:19.666Z,5.10
2023-04-16T01:05:30.427Z,5.20
2023-04-16T01:05:41.472Z,4.80
2023-04-16T01:05:52.437Z,4.80
2023-04-16T01:06:03.207Z,4.80
2023-04-16T01:06:14.278Z,4.50
2023-04-16T01:06:25.255Z,4.80
2023-04-16T01:06:36.005Z,5.50
2023-04-16T01:06:47.055Z,5.60
2023-04-16T01:06:58.017Z,5.40
2023-04-16T01:07:08.784Z,4.90
2023-04-16T01:07:19.834Z,4.50
2023-04-16T01:07:30.787Z,4.80
2023-04-16T01:07:41.553Z,5.20
2023-04-16T01:07:52.598Z,5.40
2023-04-16T01:08:03.563Z,4.90
2023-04-16T01:08:14.325Z,4.30
2023-04-16T01:08:25.370Z,4.20
2023-04-16T01:08:36.339Z,4.50
2023-04-16T01:08:47.094Z,4.80
2023-04-16T01:08:58.146Z,4.90
2023-04-16T01:09:09.339Z,5.10
2023-04-16T01:09:20.222Z,5.40
2023-04-16T01:09:31.251Z,5.80
2023-04-16T01:09:42.240Z,5.60
2023-04-16T01:09:52.980Z,5.50
2023-04-16T01:10:04.047Z,4.80
2023-04-16T01:10:14.988Z,4.50
2023-04-16T01:10:25.753Z,5.50
2023-04-16T01:10:36.797Z,5.60
2023-04-16T01:10:47.784Z,5.10
2023-04-16T01:10:58.524Z,4.80
2023-04-16T01:11:09.571Z,4.70
2023-04-16T01:11:20.548Z,5.20
2023-04-16T01:11:31.314Z,4.90
2023-04-16T01:11:42.360Z,5.30
2023-04-16T01:11:53.344Z,5.10
2023-04-16T01:12:04.098Z,5.40
2023-04-16T01:12:15.140Z,4.80
2023-04-16T01:12:26.121Z,4.40
2023-04-16T01:12:36.882Z,4.30
2023-04-16T01:12:47.927Z,4.60
2023-04-16T01:12:58.911Z,5.20
2023-04-16T01:13:09.655Z,5.50
2023-04-16T01:13:20.701Z,5.80
2023-04-16T01:13:31.675Z,5.60
2023-04-16T01:13:42.443Z,5.60
2023-04-16T01:13:53.486Z,5.30
2023-04-16T01:14:04.442Z,4.60
2023-04-16T01:14:15.211Z,4.50
2023-04-16T01:14:26.252Z,4.80
2023-04-16T01:14:37.221Z,4.80
2023-04-16T01:14:47.985Z,4.70
2023-04-16T01:14:59.036Z,4.80
2023-04-16T01:15:09.995Z,5.10
2023-04-16T01:15:20.767Z,5.10
2023-04-16T01:15:31.810Z,4.80
2023-04-16T01:15:42.781Z,4.80
2023-04-16T01:15:53.551Z,5.00
2023-04-16T01:16:04.588Z,5.50
2023-04-16T01:16:15.573Z,6.00
2023-04-16T01:16:26.414Z,4.80
2023-04-16T01:16:36.932Z,5.00
2023-04-16T01:16:47.898Z,4.50
2023-04-16T01:16:58.657Z,4.60
2023-04-16T01:17:09.708Z,4.60
2023-04-16T01:17:20.681Z,4.50
2023-04-16T01:17:31.457Z,4.60
2023-04-16T01:17:42.002Z,4.70
2023-04-16T01:17:53.020Z,4.60
2023-04-16T01:18:03.850Z,4.50
2023-04-16T01:18:14.326Z,4.30
2023-04-16T01:18:25.288Z,4.30
2023-04-16T01:18:36.061Z,4.40
2023-04-16T01:18:47.100Z,4.60
2023-04-16T01:18:58.065Z,4.80
2023-04-16T01:19:09.176Z,4.50
2023-04-16T01:19:19.757Z,4.40
2023-04-16T01:19:30.716Z,4.00
2023-04-16T01:19:41.480Z,4.30
2023-04-16T01:19:52.524Z,4.40
2023-04-16T01:20:03.491Z,4.70
2023-04-16T01:20:14.269Z,4.60
2023-04-16T01:20:25.299Z,4.40
2023-04-16T01:20:36.264Z,4.10
2023-04-16T01:20:47.024Z,4.20
2023-04-16T01:20:58.075Z,4.30
2023-04-16T01:21:09.038Z,4.20
2023-04-16T01:21:19.798Z,4.10
2023-04-16T01:21:30.867Z,4.20
2023-04-16T01:21:41.832Z,4.30
2023-04-16T01:21:52.607Z,4.40
2023-04-16T01:22:03.657Z,4.30
2023-04-16T01:22:14.616Z,4.10
2023-04-16T01:22:25.389Z,4.10
2023-04-16T01:22:36.426Z,4.40
2023-04-16T01:22:47.392Z,4.50
2023-04-16T01:22:58.156Z,4.40
2023-04-16T01:23:09.200Z,4.40
2023-04-16T01:23:20.194Z,4.50
2023-04-16T01:23:30.928Z,4.60
2023-04-16T01:23:41.992Z,4.10
2023-04-16T01:23:52.960Z,4.10
2023-04-16T01:24:03.727Z,4.10
2023-04-16T01:24:14.773Z,3.90
2023-04-16T01:24:25.739Z,4.00
2023-04-16T01:24:36.587Z,4.10
2023-04-16T01:24:47.092Z,4.60
2023-04-16T01:24:58.058Z,4.60
2023-04-16T01:25:08.828Z,4.00
2023-04-16T01:25:19.859Z,3.70
2023-04-16T01:25:30.834Z,3.90
2023-04-16T01:25:41.592Z,4.10
2023-04-16T01:25:52.646Z,4.20
2023-04-16T01:26:03.602Z,4.10
2023-04-16T01:26:14.366Z,4.10
2023-04-16T01:26:25.414Z,4.30
2023-04-16T01:26:36.392Z,4.40
2023-04-16T01:26:47.153Z,4.30
2023-04-16T01:26:58.200Z,4.10
2023-04-16T01:27:09.166Z,3.90
2023-04-16T01:27:19.930Z,3.90
2023-04-16T01:27:30.980Z,4.40
2023-04-16T01:27:41.941Z,4.50
2023-04-16T01:27:52.701Z,4.30
2023-04-16T01:28:03.770Z,3.90
2023-04-16T01:28:14.716Z,4.30
2023-04-16T01:28:25.482Z,4.50
2023-04-16T01:28:36.547Z,4.50
2023-04-16T01:28:47.492Z,4.20
2023-04-16T01:28:58.253Z,3.70
2023-04-16T01:29:09.586Z,4.00
2023-04-16T01:29:20.078Z,4.10
2023-04-16T01:29:30.842Z,3.90
2023-04-16T01:29:41.887Z,3.80
2023-04-16T01:29:52.870Z,4.00
2023-04-16T01:30:03.617Z,4.60
2023-04-16T01:30:14.670Z,4.20
2023-04-16T01:30:25.626Z,4.20
2023-04-16T01:30:36.401Z,5.00
2023-04-16T01:30:47.439Z,5.00
2023-04-16T01:30:58.461Z,4.80
2023-04-16T01:31:09.257Z,4.50
2023-04-16T01:31:19.826Z,4.30
2023-04-16T01:31:30.770Z,4.30
2023-04-16T01:31:41.562Z,3.80
2023-04-16T01:31:52.597Z,3.50
2023-04-16T01:32:03.539Z,3.60
2023-04-16T01:32:14.304Z,4.10
2023-04-16T01:32:25.378Z,4.20
2023-04-16T01:32:36.331Z,4.30
2023-04-16T01:32:47.146Z,4.10
2023-04-16T01:32:58.225Z,4.20
2023-04-16T01:33:09.198Z,4.10
2023-04-16T01:33:19.952Z,4.10
2023-04-16T01:33:30.997Z,4.20
2023-04-16T01:33:41.973Z,4.00
2023-04-16T01:33:52.742Z,3.80
2023-04-16T01:34:03.776Z,3.90
2023-04-16T01:34:14.734Z,4.00
2023-04-16T01:34:25.500Z,4.20
2023-04-16T01:34:36.549Z,4.20
2023-04-16T01:34:47.507Z,4.10
2023-04-16T01:34:58.286Z,4.40
2023-04-16T01:35:09.323Z,4.40
2023-04-16T01:35:20.292Z,4.60
2023-04-16T01:35:31.055Z,4.20
2023-04-16T01:35:42.099Z,4.20
2023-04-16T01:35:53.078Z,3.80
2023-04-16T01:36:03.832Z,3.70
2023-04-16T01:36:14.874Z,3.80
2023-04-16T01:36:25.836Z,4.10
2023-04-16T01:36:36.619Z,4.10
2023-04-16T01:36:47.670Z,4.60
2023-04-16T01:36:58.633Z,4.20
2023-04-16T01:37:09.399Z,3.90
2023-04-16T01:37:20.443Z,4.40
2023-04-16T01:37:31.420Z,4.20
2023-04-16T01:37:42.171Z,3.80
2023-04-16T01:37:53.216Z,5.00
2023-04-16T01:38:04.185Z,5.00
2023-04-16T01:38:14.949Z,5.00
2023-04-16T01:38:25.994Z,3.90
2023-04-16T01:38:36.956Z,3.80
2023-04-16T01:38:47.723Z,3.90
2023-04-16T01:38:58.770Z,3.90
2023-04-16T01:39:09.979Z,3.80
2023-04-16T01:39:20.905Z,3.60
2023-04-16T01:39:31.941Z,3.70
2023-04-16T01:39:42.907Z,4.40
2023-04-16T01:39:53.694Z,4.10
2023-04-16T01:40:04.713Z,3.30
2023-04-16T01:40:15.701Z,3.40
2023-04-16T01:40:26.444Z,4.00
2023-04-16T01:40:37.494Z,4.70
2023-04-16T01:40:48.454Z,4.40
2023-04-16T01:40:59.219Z,4.30
2023-04-16T01:41:10.267Z,3.60
2023-04-16T01:41:21.236Z,3.90
2023-04-16T01:41:32.000Z,3.70
2023-04-16T01:41:43.047Z,3.80
2023-04-16T01:41:54.025Z,3.70
2023-04-16T01:42:04.779Z,4.00
2023-04-16T01:42:15.830Z,3.70
2023-04-16T01:42:26.789Z,3.70
2023-04-16T01:42:37.566Z,3.80
2023-04-16T01:42:48.596Z,3.90
2023-04-16T01:42:59.560Z,3.40
2023-04-16T01:43:10.445Z,3.20
2023-04-16T01:43:20.888Z,3.10
2023-04-16T01:43:31.856Z,3.00
2023-04-16T01:43:42.615Z,3.10
2023-04-16T01:43:53.666Z,3.60
2023-04-16T01:44:04.644Z,3.80
2023-04-16T01:44:15.390Z,4.00
2023-04-16T01:44:26.449Z,3.80
2023-04-16T01:44:37.454Z,4.00
2023-04-16T01:44:48.171Z,4.10
2023-04-16T01:44:59.220Z,3.90
2023-04-16T01:45:10.179Z,3.40
2023-04-16T01:45:20.939Z,3.50
2023-04-16T01:45:31.984Z,3.50
2023-04-16T01:45:42.960Z,3.30
2023-04-16T01:45:53.717Z,3.30
2023-04-16T01:46:04.772Z,3.70
2023-04-16T01:46:15.808Z,3.50
2023-04-16T01:46:26.544Z,3.90
2023-04-16T01:46:37.690Z,3.40
2023-04-16T01:46:48.172Z,3.80
2023-04-16T01:46:58.991Z,3.20
2023-04-16T01:47:09.467Z,3.60
2023-04-16T01:47:20.502Z,3.20
2023-04-16T01:47:31.233Z,3.30
2023-04-16T01:47:42.294Z,3.30
2023-04-16T01:47:53.257Z,3.00
2023-04-16T01:48:04.033Z,2.90
2023-04-16T01:48:15.065Z,2.90
2023-04-16T01:48:26.123Z,3.10
2023-04-16T01:48:36.895Z,3.30
2023-04-16T01:48:47.940Z,3.20
2023-04-16T01:48:58.908Z,3.20
2023-04-16T01:49:09.875Z,3.40
2023-04-16T01:49:20.443Z,3.30
2023-04-16T01:49:31.410Z,3.30
2023-04-16T01:49:42.175Z,3.10
2023-04-16T01:49:53.219Z,3.20
2023-04-16T01:50:04.183Z,3.10
2023-04-16T01:50:14.958Z,3.50
2023-04-16T01:50:26.002Z,3.70
2023-04-16T01:50:36.968Z,4.20
2023-04-16T01:50:47.731Z,3.60
2023-04-16T01:50:58.786Z,3.40
2023-04-16T01:51:09.740Z,3.20
2023-04-16T01:51:20.514Z,3.10
2023-04-16T01:51:31.550Z,3.00
2023-04-16T01:51:42.517Z,3.00
2023-04-16T01:51:53.301Z,3.30
2023-04-16T01:52:04.340Z,3.50
2023-04-16T01:52:15.305Z,3.70
2023-04-16T01:52:26.080Z,3.10
2023-04-16T01:52:37.140Z,3.10
2023-04-16T01:52:48.085Z,3.00
2023-04-16T01:52:58.865Z,3.10
2023-04-16T01:53:09.916Z,3.10
2023-04-16T01:53:20.871Z,3.30
2023-04-16T01:53:31.642Z,3.30
2023-04-16T01:53:42.680Z,3.10
2023-04-16T01:53:53.649Z,2.80
2023-04-16T01:54:04.422Z,2.70
2023-04-16T01:54:15.471Z,2.60
2023-04-16T01:54:26.434Z,2.60
2023-04-16T01:54:37.202Z,2.70
2023-04-16T01:54:48.249Z,3.00
2023-04-16T01:54:59.214Z,2.90
2023-04-16T01:55:09.980Z,2.80
2023-04-16T01:55:21.027Z,2.80
2023-04-16T01:55:31.992Z,3.00
2023-04-16T01:55:42.780Z,2.60
2023-04-16T01:55:53.796Z,2.70
2023-04-16T01:56:04.810Z,2.60
2023-04-16T01:56:15.532Z,2.70
2023-04-16T01:56:26.572Z,2.90
2023-04-16T01:56:37.539Z,2.90
2023-04-16T01:56:48.304Z,3.00
2023-04-16T01:56:59.372Z,2.90
2023-04-16T01:57:10.331Z,2.90
2023-04-16T01:57:21.090Z,3.00
2023-04-16T01:57:32.136Z,3.20
2023-04-16T01:57:43.105Z,2.90
2023-04-16T01:57:53.870Z,2.70
2023-04-16T01:58:04.910Z,2.80
2023-04-16T01:58:15.910Z,3.00
2023-04-16T01:58:26.644Z,3.20
2023-04-16T01:58:37.688Z,2.90
2023-04-16T01:58:48.661Z,2.90
2023-04-16T01:58:59.420Z,3.10
2023-04-16T01:59:10.893Z,2.80
2023-04-16T01:59:21.434Z,2.70
2023-04-16T01:59:32.204Z,2.50
2023-04-16T01:59:43.245Z,2.70
2023-04-16T01:59:54.221Z,2.90
2023-04-16T02:00:04.978Z,2.90
2023-04-16T02:00:16.021Z,3.30
2023-04-16T02:00:26.988Z,3.40
2023-04-16T02:00:37.817Z,2.60
2023-04-16T02:00:48.336Z,2.60
2023-04-16T02:00:59.311Z,2.50
2023-04-16T02:01:10.090Z,2.40
2023-04-16T02:01:20.704Z,2.60
2023-04-16T02:01:31.820Z,2.50
2023-04-16T02:01:42.636Z,2.70
2023-04-16T02:01:53.745Z,2.80
2023-04-16T02:02:04.813Z,3.00
2023-04-16T02:02:15.569Z,2.90
2023-04-16T02:02:26.730Z,2.80
2023-04-16T02:02:37.321Z,2.70
2023-04-16T02:02:48.291Z,2.70
2023-04-16T02:02:58.972Z,2.60
2023-04-16T02:03:09.488Z,2.60
2023-04-16T02:03:20.488Z,2.50
2023-04-16T02:03:31.229Z,2.50
2023-04-16T02:03:41.968Z,2.70
2023-04-16T02:03:52.960Z,3.00
2023-04-16T02:04:03.587Z,2.80
2023-04-16T02:04:14.630Z,2.50
2023-04-16T02:04:25.341Z,2.70
2023-04-16T02:04:36.393Z,2.70
2023-04-16T02:04:47.359Z,2.90
2023-04-16T02:04:58.119Z,2.80
2023-04-16T02:05:09.171Z,2.90
2023-04-16T02:05:20.151Z,3.30
2023-04-16T02:05:30.908Z,3.80
2023-04-16T02:05:41.954Z,4.00
2023-04-16T02:05:52.925Z,3.40
2023-04-16T02:06:03.686Z,3.00
2023-04-16T02:06:14.765Z,3.10
2023-04-16T02:06:25.698Z,2.70
2023-04-16T02:06:36.463Z,2.60
2023-04-16T02:06:47.525Z,2.60
2023-04-16T02:06:58.489Z,2.80
2023-04-16T02:07:09.270Z,2.80
2023-04-16T02:07:20.313Z,2.50
2023-04-16T02:07:31.280Z,2.60
2023-04-16T02:07:42.046Z,2.60
2023-04-16T02:07:53.093Z,2.80
2023-04-16T02:08:04.061Z,2.60
2023-04-16T02:08:14.820Z,2.40
2023-04-16T02:08:25.865Z,2.70
2023-04-16T02:08:36.849Z,2.70
2023-04-16T02:08:47.610Z,2.80
2023-04-16T02:08:58.664Z,3.00
2023-04-16T02:09:09.895Z,2.80
2023-04-16T02:09:20.206Z,3.10
2023-04-16T02:09:31.252Z,3.00
2023-04-16T02:09:42.223Z,3.00
2023-04-16T02:09:52.980Z,2.60
2023-04-16T02:10:04.024Z,2.90
2023-04-16T02:10:14.993Z,2.80
2023-04-16T02:10:25.774Z,3.00
2023-04-16T02:10:36.797Z,3.00
2023-04-16T02:10:47.772Z,2.80
2023-04-16T02:10:58.524Z,2.70
2023-04-16T02:11:09.571Z,2.70
2023-04-16T02:11:20.547Z,2.90
2023-04-16T02:11:31.300Z,2.70
2023-04-16T02:11:42.341Z,2.70
2023-04-16T02:11:53.312Z,2.60
2023-04-16T02:12:04.085Z,3.30
2023-04-16T02:12:15.132Z,4.40
2023-04-16T02:12:26.099Z,4.20
2023-04-16T02:12:36.861Z,3.70
2023-04-16T02:12:47.922Z,3.10
2023-04-16T02:12:58.881Z,3.00
2023-04-16T02:13:09.643Z,3.00
2023-04-16T02:13:20.708Z,3.00
2023-04-16T02:13:31.654Z,3.00
2023-04-16T02:13:42.417Z,2.70
2023-04-16T02:13:53.464Z,2.50
2023-04-16T02:14:04.439Z,3.00
2023-04-16T02:14:15.193Z,3.10
2023-04-16T02:14:26.240Z,3.40
2023-04-16T02:14:37.206Z,3.10
2023-04-16T02:14:47.971Z,3.10
2023-04-16T02:14:59.043Z,3.00
2023-04-16T02:15:09.987Z,3.10
2023-04-16T02:15:20.740Z,3.10
2023-04-16T02:15:31.787Z,3.00
2023-04-16T02:15:42.768Z,3.10
2023-04-16T02:15:53.518Z,3.10
2023-04-16T02:16:04.637Z,2.90
2023-04-16T02:16:15.604Z,2.90
2023-04-16T02:16:26.572Z,3.10
2023-04-16T02:16:37.105Z,3.30
2023-04-16T02:16:48.213Z,3.10
2023-04-16T02:16:58.932Z,3.10
2023-04-16T02:17:09.978Z,3.10
2023-04-16T02:17:20.985Z,3.20
2023-04-16T02:17:31.748Z,3.70
2023-04-16T02:17:42.840Z,3.30
2023-04-16T02:17:53.797Z,3.00
2023-04-16T02:18:04.567Z,3.20
2023-04-16T02:18:15.589Z,3.40
2023-04-16T02:18:26.559Z,3.80
2023-04-16T02:18:37.332Z,3.70
2023-04-16T02:18:48.363Z,3.40
2023-04-16T02:18:59.326Z,3.30
2023-04-16T02:19:10.317Z,3.40
2023-04-16T02:19:20.881Z,3.30
2023-04-16T02:19:31.848Z,3.50
2023-04-16T02:19:42.608Z,3.20
2023-04-16T02:19:53.656Z,3.50
2023-04-16T02:20:04.622Z,3.20
2023-04-16T02:20:15.386Z,3.60
2023-04-16T02:20:26.432Z,3.90
2023-04-16T02:20:37.394Z,3.70
2023-04-16T02:20:48.160Z,3.60
2023-04-16T02:20:59.208Z,3.10
2023-04-16T02:21:10.172Z,3.10
2023-04-16T02:21:20.939Z,3.10
2023-04-16T02:21:31.982Z,3.20
2023-04-16T02:21:42.945Z,3.40
2023-04-16T02:21:53.709Z,3.40
2023-04-16T02:22:04.769Z,3.20
2023-04-16T02:22:15.722Z,3.20
2023-04-16T02:22:26.497Z,4.00
2023-04-16T02:22:37.543Z,4.20
2023-04-16T02:22:48.517Z,4.60
2023-04-16T02:22:59.290Z,3.80
2023-04-16T02:23:10.334Z,4.30
2023-04-16T02:23:21.297Z,3.80
2023-04-16T02:23:32.072Z,3.50
2023-04-16T02:23:43.110Z,3.30
2023-04-16T02:23:54.086Z,3.50
2023-04-16T02:24:04.841Z,3.50
2023-04-16T02:24:15.882Z,3.70
2023-04-16T02:24:26.852Z,3.60
2023-04-16T02:24:37.626Z,3.70
2023-04-16T02:24:48.657Z,3.50
2023-04-16T02:24:59.621Z,3.50
2023-04-16T02:25:10.387Z,4.00